• Join FlightAware (Why Join?)
  • Login
  • US Flag 
08:29AM EST


 

Airport Tracker/Info


-or-


 

Live Flight TrackerFlight Track Log ✈ SWA718 ✈ 17-Apr-2013 ✈ KMCO - KMDW

Flight Track Log - Related Links

Times and Time Zones

All times are in EDT time to prevent confusion due to time zone crossing. See the SWA718 flight status page for this flight to view local times or setup timezone preferences in your user account.

Time Position Orientation Groundspeed Altitude Reporting Facility
EDT Latitude Longitude Course Direction KTS MPH feet Rate Location/Type
08:37PM 28.4500 -81.3167 360° North 164 189 800  Level Orlando TRACON
08:39PM 28.5500 -81.3167 360° North 237 273 4,900 2,802 Climbing Orlando TRACON
08:40PM 28.5717 -81.4531 280° West 294 338 10,000 2,475 Climbing Jacksonville Center
08:41PM 28.5667 -81.5547 267° West 294 338 11,500 2,100 Climbing Jacksonville Center
08:42PM 28.5594 -81.6658 266° West 338 389 14,200 2,700 Climbing Jacksonville Center
08:43PM 28.5564 -81.7864 268° West 370 426 16,900 2,450 Climbing Jacksonville Center
08:44PM 28.5469 -81.9094 265° West 382 440 19,100 2,400 Climbing Jacksonville Center
08:45PM 28.5622 -82.0369 278° West 394 453 21,700 2,350 Climbing Jacksonville Center
08:46PM 28.5839 -82.1503 282° West 399 459 23,800 2,100 Climbing Jacksonville Center
08:47PM 28.6553 -82.2467 310° West 391 450 25,900 1,850 Climbing Jacksonville Center
08:48PM 28.7539 -82.3267 325° Northwest 403 464 27,500 1,550 Climbing Jacksonville Center
08:49PM 28.8608 -82.4183 323° Northwest 422 486 29,000 1,600 Climbing Jacksonville Center
08:50PM 28.9592 -82.5058 322° Northwest 439 505 30,700 1,600 Climbing Jacksonville Center
08:51PM 29.0575 -82.5908 323° Northwest 439 505 32,200 1,450 Climbing Jacksonville Center
08:52PM 29.1558 -82.6786 322° Northwest 444 511 33,600 1,500 Climbing Jacksonville Center
08:53PM 29.2519 -82.7639 322° Northwest 444 511 35,200 1,200 Climbing Jacksonville Center
08:54PM 29.3481 -82.8472 323° Northwest 439 505 36,000 400 Climbing Jacksonville Center
08:55PM 29.4314 -82.9211 322° Northwest 439 505 36,000  Level Jacksonville Center
08:56PM 29.5294 -83.0094 322° Northwest 439 505 36,000  Level Jacksonville Center
08:57PM 29.6233 -83.0933 322° Northwest 444 511 36,000  Level Jacksonville Center
08:58PM 29.7233 -83.1819 322° Northwest 438 504 36,000  Level Jacksonville Center
08:59PM 29.8150 -83.2661 321° Northwest 438 504 36,000  Level Jacksonville Center
09:00PM 29.9128 -83.3478 324° Northwest 443 510 36,000  Level Jacksonville Center
09:01PM 30.0086 -83.4347 322° Northwest 443 510 36,000  Level Jacksonville Center
09:02PM 30.1042 -83.5192 323° Northwest 443 510 36,000  Level Jacksonville Center
09:03PM 30.1997 -83.6089 321° Northwest 443 510 36,000  Level Jacksonville Center
09:04PM 30.2975 -83.6961 322° Northwest 443 510 36,000  Level Jacksonville Center
09:05PM 30.3950 -83.7811 323° Northwest 443 510 36,000  Level Jacksonville Center
09:06PM 30.4903 -83.8689 322° Northwest 443 510 36,000  Level Jacksonville Center
09:07PM 30.5939 -83.9642 322° Northwest 443 510 36,000  Level Jacksonville Center
09:08PM 30.6850 -84.0497 321° Northwest 437 503 36,000  Level Jacksonville Center
09:09PM 30.7825 -84.1403 321° Northwest 437 503 36,000  Level Jacksonville Center
09:10PM 30.8756 -84.2261 322° Northwest 437 503 36,000  Level Jacksonville Center
09:11PM 30.9728 -84.3125 323° Northwest 442 509 36,000  Level Jacksonville Center
09:13PM 31.1281 -84.4608 321° Northwest 462 532 36,000  Level Atlanta Center
09:14PM 31.2239 -84.5489 322° Northwest 456 525 36,000  Level Atlanta Center
09:15PM 31.3194 -84.6369 322° Northwest 445 512 36,000  Level Atlanta Center
09:16PM 31.4169 -84.7250 322° Northwest 445 512 36,000  Level Atlanta Center
09:17PM 31.5106 -84.8158 320° Northwest 445 512 36,000  Level Atlanta Center
09:18PM 31.6058 -84.9044 322° Northwest 439 505 36,000  Level Atlanta Center
09:19PM 31.7011 -84.9958 321° Northwest 439 505 36,000  Level Atlanta Center
09:20PM 31.8006 -85.0897 321° Northwest 446 513 36,000  Level Atlanta Center
09:21PM 31.9061 -85.1839 323° Northwest 439 505 36,000  Level Atlanta Center
09:22PM 32.0033 -85.2756 321° Northwest 444 511 36,000  Level Atlanta Center
09:23PM 32.0986 -85.3628 322° Northwest 439 505 36,000  Level Atlanta Center
09:24PM 32.1914 -85.4525 321° Northwest 439 505 36,000  Level Atlanta Center
09:25PM 32.2842 -85.5450 320° Northwest 439 505 36,000  Level Atlanta Center
09:26PM 32.3708 -85.6250 322° Northwest 444 511 36,000  Level Atlanta Center
09:27PM 32.4678 -85.7178 321° Northwest 444 511 36,000  Level Atlanta Center
09:28PM 32.5647 -85.8083 322° Northwest 444 511 36,000  Level Atlanta Center
09:29PM 32.6594 -85.9017 320° Northwest 444 511 36,000  Level Atlanta Center
09:30PM 32.7539 -85.9925 321° Northwest 444 511 36,000  Level Atlanta Center
09:31PM 32.8506 -86.0861 321° Northwest 444 511 36,000  Level Atlanta Center
09:32PM 32.9450 -86.1775 321° Northwest 444 511 36,000  Level Atlanta Center
09:33PM 33.0372 -86.2739 319° Northwest 444 511 36,000  Level Atlanta Center
09:34PM 33.1336 -86.3706 320° Northwest 444 511 36,000  Level Atlanta Center
09:35PM 33.2150 -86.4697 314° West 439 505 36,000  Level Atlanta Center
09:36PM 33.2519 -86.6097 288° West 417 480 36,000  Level Atlanta Center
09:37PM 33.2886 -86.7425 288° West 417 480 36,000  Level Atlanta Center
09:38PM 33.3272 -86.8881 288° West 422 486 36,000  Level Atlanta Center
09:39PM 33.3636 -87.0211 288° West 417 480 36,000  Level Atlanta Center
09:40PM 33.4000 -87.1542 288° West 422 486 36,000  Level Atlanta Center
09:42PM 33.4675 -87.3964 289° West 428 493 36,000  Level Memphis Center
09:43PM 33.5039 -87.5247 289° West 423 487 36,000  Level Memphis Center
09:44PM 33.5400 -87.6581 288° West 418 481 36,000  Level Memphis Center
09:45PM 33.5761 -87.7842 289° West 418 481 36,000 450 Level Memphis Center
09:46PM 33.6103 -87.9153 287° West 418 481 36,900 800 Climbing Memphis Center
09:47PM 33.6439 -88.0467 287° West 418 481 37,600 550 Climbing Memphis Center
09:48PM 33.6797 -88.1781 288° West 418 481 38,000 200 Climbing Memphis Center
09:49PM 33.7133 -88.3069 287° West 418 481 38,000  Level Memphis Center
09:50PM 33.7508 -88.4386 289° West 418 481 38,000  Level Memphis Center
09:51PM 33.7842 -88.5703 287° West 418 481 38,000  Level Memphis Center
09:52PM 33.8172 -88.6944 288° West 413 475 38,000  Level Memphis Center
09:53PM 33.8500 -88.8214 287° West 408 470 38,000  Level Memphis Center
09:54PM 33.8828 -88.9436 288° West 391 450 38,000  Level Memphis Center
09:55PM 33.9092 -89.0556 286° West 386 444 38,000  Level Memphis Center
09:56PM 33.9439 -89.1778 289° West 386 444 38,000  Level Memphis Center
09:57PM 33.9742 -89.3000 287° West 380 437 38,000  Level Memphis Center
09:58PM 34.0064 -89.4225 288° West 380 437 38,000  Level Memphis Center
09:59PM 34.0364 -89.5425 287° West 375 432 38,000  Level Memphis Center
10:00PM 34.0686 -89.6675 287° West 382 440 38,000  Level Memphis Center
10:01PM 34.1006 -89.8003 286° West 377 434 38,000  Level Memphis Center
10:02PM 34.1303 -89.9231 286° West 377 434 38,000  Level Memphis Center
10:03PM 34.1619 -90.0433 288° West 377 434 38,000  Level Memphis Center
10:04PM 34.1914 -90.1639 286° West 377 434 38,000  Level Memphis Center
10:05PM 34.2228 -90.2867 287° West 377 434 38,000  Level Memphis Center
10:06PM 34.2542 -90.4075 287° West 377 434 38,000  Level Memphis Center
10:07PM 34.2853 -90.5306 287° West 377 434 38,000  Level Memphis Center
10:08PM 34.3103 -90.6389 286° West 377 434 38,000  Level Memphis Center
10:09PM 34.3392 -90.7597 286° West 377 434 38,000  Level Memphis Center
10:10PM 34.3700 -90.8781 288° West 377 434 38,000  Level Memphis Center
10:11PM 34.3964 -90.9989 285° West 377 434 38,000  Level Memphis Center
10:12PM 34.4272 -91.1175 288° West 377 434 38,000  Level Memphis Center
10:13PM 34.4575 -91.2514 285° West 377 434 38,000  Level Memphis Center
10:14PM 34.4878 -91.3778 286° West 382 440 38,000  Level Memphis Center
10:15PM 34.5181 -91.4989 287° West 382 440 38,000  Level Memphis Center
10:16PM 34.5483 -91.6256 286° West 382 440 38,000  Level Memphis Center
10:17PM 34.5761 -91.7494 285° West 382 440 38,000  Level Memphis Center
10:18PM 34.6058 -91.8761 286° West 382 440 38,000  Level Memphis Center
10:19PM 34.6356 -92.0003 286° West 382 440 38,000 -100 Level Memphis Center
10:20PM 34.6756 -92.1250 291° West 382 440 37,800 -500 Descending Memphis Center
10:21PM 34.7814 -92.1725 340° North 363 418 37,000 -400 Descending Memphis Center
10:22PM 34.9031 -92.1194 20° North 357 411 37,000  Level Memphis Center
10:23PM 35.0228 -92.0611 22° Northeast 407 468 37,000  Level Memphis Center
10:24PM 35.1342 -92.0075 21° North 424 488 37,000  Level Memphis Center
10:25PM 35.2411 -91.9561 21° North 435 501 37,000  Level Memphis Center
10:26PM 35.3567 -91.9050 20° North 440 506 37,000 -450 Level Memphis Center
10:27PM 35.4678 -91.8536 21° North 435 501 36,100 -950 Descending Memphis Center
10:28PM 35.5789 -91.8019 21° North 429 494 35,100 -1,000 Descending Memphis Center
10:29PM 35.6858 -91.7500 22° Northeast 424 488 34,100 -1,000 Descending Memphis Center
10:30PM 35.7908 -91.7006 21° North 407 468 33,100 -950 Descending Memphis Center
10:31PM 35.8975 -91.6511 21° North 407 468 32,200 -850 Descending Memphis Center
10:32PM 36.0150 -91.5939 21° North 407 468 31,400 -900 Descending Memphis Center
10:33PM 36.1300 -91.5392 21° North 428 493 30,400 -1,000 Descending Memphis Center
10:34PM 36.2494 -91.4842 20° North 439 505 29,400 -1,000 Descending Memphis Center
10:35PM 36.3647 -91.4292 21° North 439 505 28,400 -1,000 Descending Memphis Center
10:36PM 36.4733 -91.3764 21° North 434 499 27,400 -1,000 Descending Memphis Center
10:37PM 36.5822 -91.3258 20° North 434 499 26,400 -1,000 Descending Memphis Center
10:38PM 36.6911 -91.2728 21° North 434 499 25,400 -700 Descending Memphis Center
10:39PM 36.8061 -91.2172 21° North 434 499 25,000 -136 Descending Memphis Center
10:41PM 37.0403 -91.1022 21° North 448 516 25,000  Level Kansas City Center
10:42PM 37.1617 -91.0428 21° North 459 528 25,000  Level Kansas City Center
10:43PM 37.2856 -90.9814 22° Northeast 469 540 25,000  Level Kansas City Center
10:44PM 37.4094 -90.9189 22° Northeast 475 547 25,000 -145 Level Kansas City Center
10:45PM 37.5308 -90.8592 21° North 472 543 24,700 -639 Descending Kansas City Center
10:46PM 37.6600 -90.7950 21° North 469 540 23,700 -1,000 Descending Kansas City Center
10:47PM 37.7775 -90.7369 21° North 460 529 22,700 -984 Descending Kansas City Center
10:48PM 37.8942 -90.6786 22° Northeast 453 521 21,700 -1,016 Descending Kansas City Center
10:49PM 38.0094 -90.6211 21° North 446 513 20,600 -1,041 Descending Kansas City Center
10:50PM 38.1228 -90.5647 21° North 439 505 19,600 -787 Descending Kansas City Center
10:51PM 38.2344 -90.5075 22° Northeast 434 499 19,000 -298 Descending Kansas City Center
10:52PM 38.3467 -90.4517 21° North 434 499 19,000  Level Kansas City Center
10:53PM 38.4747 -90.3867 22° Northeast 433 498 19,000  Level Kansas City Center
10:54PM 38.5683 -90.3372 22° Northeast 434 499 19,000  Level Kansas City Center
10:55PM 38.7025 -90.2719 21° North 440 506 19,000  Level Kansas City Center
10:56PM 38.8139 -90.2122 23° Northeast 439 505 19,000  Level Kansas City Center
10:57PM 38.9219 -90.1328 30° Northeast 447 514 19,000  Level Kansas City Center
10:58PM 39.0267 -90.0581 29° Northeast 446 513 19,000  Level Kansas City Center
10:59PM 39.1436 -89.9636 32° Northeast 451 519 19,000  Level Kansas City Center
11:00PM 39.2339 -89.8681 39° Northeast 463 533 19,000  Level Kansas City Center
11:01PM 39.3339 -89.7658 38° Northeast 462 532 19,000  Level Kansas City Center
11:02PM 39.4550 -89.6422 38° Northeast 461 531 19,000  Level Kansas City Center
11:03PM 39.5564 -89.5397 38° Northeast 462 532 19,000  Level Kansas City Center
11:04PM 39.6586 -89.4372 38° Northeast 465 535 19,000  Level Kansas City Center
11:05PM 39.7506 -89.3469 37° Northeast 464 534 19,000  Level Kansas City Center
11:06PM 39.8536 -89.2467 37° Northeast 464 534 19,000  Level Kansas City Center
11:07PM 39.9567 -89.1450 37° Northeast 465 535 19,000 -639 Level Kansas City Center
11:08PM 40.0817 -89.0244 36° Northeast 467 537 17,700 -1,033 Descending Kansas City Center
11:09PM 40.1831 -88.9211 38° Northeast 466 536 16,900 -558 Descending Kansas City Center
11:10PM 40.2225 -88.8819 37° Northeast 467 537 16,900  Level Chicago Center
11:11PM 40.3347 -88.8056 27° Northeast 459 528 16,900 -344 Level Chicago Center
11:12PM 40.4483 -88.7319 26° Northeast 459 528 16,200 -885 Descending Chicago Center
11:13PM 40.5628 -88.6608 25° Northeast 430 495 15,100 -1,082 Descending Chicago Center
11:14PM 40.6628 -88.5964 26° Northeast 408 470 14,000 -1,033 Descending Chicago Center
11:15PM 40.7542 -88.5403 25° Northeast 375 432 13,000 -1,082 Descending Chicago Center
11:16PM 40.8403 -88.4847 26° Northeast 353 406 11,800 -1,525 Descending Chicago Center
11:17PM 40.9283 -88.4472 18° North 338 389 9,900 -1,623 Descending Chicago Center
11:18PM 41.0125 -88.4206 13° North 318 366 8,500 -1,561 Descending Chicago Center
11:19PM 41.0944 -88.3994 11° North 305 351 6,700 -1,171 Descending Chicago Center
11:20PM 41.1611 -88.3478 30° Northeast 281 323 6,100 -344 Descending Chicago Center
11:21PM 41.2417 -88.2847 30° Northeast 281 323 6,000 -49 Descending Chicago Center
11:22PM 41.3078 -88.2286 33° Northeast 282 325 6,000  Level Chicago Center
11:23PM 41.3844 -88.1972 17° North 288 331 6,000 -344 Level Chicago Center
11:24PM 41.4589 -88.1689 16° North 276 318 5,300 -836 Descending Chicago Center
11:25PM 41.5294 -88.1411 16° North 265 305 4,300 -885 Descending Chicago Center
11:26PM 41.5950 -88.1131 18° North 256 295 3,500 -885 Descending Chicago Center
11:27PM 41.6592 -88.0875 17° North 247 284 2,500 -492 Descending Chicago Center
11:28PM 41.7256 -88.0675 13° North 244 281 2,500  Level Chicago Center
11:29PM 41.7889 -88.0336 22° Northeast 249 287 2,500  Level Chicago Center
11:30PM 41.8425 -87.9839 35° Northeast 241 277 2,500  Level Chicago Center
11:31PM 41.8786 -87.9392 43° Northeast 207 238 2,500 -148 Level Chicago Center
11:32PM 41.8728 -87.8803 98° East 177 204 2,200 -197 Descending Chicago Center
11:33PM 41.8333 -87.8333 138° Southeast 148 170 2,100 -425 Descending Chicago TRACON
11:34PM 41.8167 -87.8000 124° Southeast 124 143 1,300 -727 Descending Chicago TRACON